Terminal Aerodrome Forecast
Issued by NWS

Home | Current Version | Previous Version | Text Only | Print | Product List | Glossary On
Versions: 1 2 3 4 5 6 7 8 9 10 11 12 13 14 15 16 17 18 19 20 21 22 23 24 25 26 27 28 29 30 31 32 33 34 35 36 37 38 39
000
FTPA31 PHFO 161900 AAA
TAFLNY
TAF AMD
PHNY 161900Z 1619/1718 05025G37KT P6SM FEW025 SCT040
     FM170600 05015G25KT P6SM FEW025 SCT040
      AMD NOT SKED=

USA.gov is the U.S. government's official web portal to all federal, state and local government web resources and services.